Flight Track Log - Related Links

Times and Time Zones

All times are in EST time to prevent confusion due to time zone crossing. See the N1944E flight status page for this flight to view local times or setup timezone preferences in your user account.


Time Position Orientation Groundspeed Altitude Reporting Facility
EST Latitude Longitude Course Direction KTS MPH feet Rate Location/Type
Wed 06:20:53 PM 43.5819 -110.7506 53° Northeast 113 130 7,300  Level Salt Lake Center
Wed 06:21:54 PM 43.5650 -110.7261 134° Southeast 126 145 8,200 829 Climbing Salt Lake Center
Wed 06:22:56 PM 43.5997 -110.6864 40° Northeast 136 157 9,000 823 Climbing Salt Lake Center
Wed 06:23:58 PM 43.6333 -110.6547 34° Northeast 142 163 9,900 829 Climbing Salt Lake Center
Wed 06:24:59 PM 43.6669 -110.6253 32° Northeast 145 167 10,700 768 Climbing Salt Lake Center
Wed 06:25:00 PM 43.7666 -110.4459 51° Northeast  Level Estimated
Wed 06:26:00 PM 43.7929 -110.3970 53° Northeast  Level FlightAware Approximate
Wed 06:26:03 PM 43.6914 -110.5717 58° Northeast 160 184 11,500  Level Salt Lake Center
Wed 06:27:02 PM 43.7189 -110.5208 53° Northeast 163 188 12,600 992 Climbing Salt Lake Center
Wed 06:28:04 PM 43.7469 -110.4750 50° Northeast 158 182 13,500 968 Climbing Salt Lake Center
Wed 06:29:06 PM 43.7775 -110.4203 52° Northeast 152 175 14,600 1,024 Climbing Salt Lake Center
Wed 06:30:07 PM 43.8031 -110.3750 52° Northeast 149 171 15,600 927 Climbing Salt Lake Center
Wed 06:31:09 PM 43.8294 -110.3269 53° Northeast 155 178 16,500 732 Climbing Salt Lake Center
Wed 06:32:10 PM 43.8558 -110.2797 52° Northeast 156 180 17,100 244 Climbing Salt Lake Center
Wed 06:33:12 PM 43.8894 -110.2181 53° Northeast 177 204 17,000 -145 Descending Salt Lake Center
Wed 06:34:14 PM 43.9192 -110.1642 53° Northeast 183 211 16,800 -98 Descending Salt Lake Center
Wed 06:35:15 PM 43.9481 -110.1081 54° Northeast 185 213 16,800  Level Salt Lake Center
Wed 06:36:17 PM 43.9797 -110.0492 53° Northeast 176 203 16,800  Level Salt Lake Center
Wed 06:37:19 PM 44.0081 -109.9967 53° Northeast 176 203 16,800  Level Salt Lake Center
Wed 06:38:20 PM 44.0400 -109.9347 54° Northeast 177 204 16,800  Level Salt Lake Center
Wed 06:40:00 PM 44.0827 -109.8515 55° Northeast  Level FlightAware Approximate
Wed 06:47:00 PM 44.2590 -109.4987 55° Northeast  Level FlightAware Approximate
Wed 06:48:00 PM 44.2842 -109.4483 55° Northeast  Level FlightAware Approximate
Wed 06:49:00 PM 44.3100 -109.3983 53° Northeast  Level FlightAware Approximate
Wed 06:50:00 PM 44.3367 -109.3493 53° Northeast  Level FlightAware Approximate
Wed 06:51:00 PM 44.3633 -109.3003 53° Northeast  Level FlightAware Approximate
Wed 06:52:00 PM 44.3900 -109.2512 53° Northeast  Level FlightAware Approximate
Wed 06:53:00 PM 44.4166 -109.2021 53° Northeast  Level FlightAware Approximate
Wed 06:54:00 PM 44.4432 -109.1529 53° Northeast  Level FlightAware Approximate
Wed 06:55:00 PM 44.4698 -109.1037 53° Northeast  Level FlightAware Approximate
Wed 06:56:00 PM 44.4964 -109.0544 53° Northeast  Level FlightAware Approximate
Wed 06:57:00 PM 44.5167 -109.0167 53° Northeast  Level FlightAware Approximate
Wed 06:58:00 PM 44.5202 -109.0238 53° Northeast  Level Estimated
Wed 06:59:00 PM 44.5167 -109.0167 53° Northeast  Level FlightAware Approximate
Wed 07:00:00 PM 44.5202 -109.0238 53° Northeast  Level Estimated
Wed 07:01:00 PM 44.5167 -109.0167 53° Northeast  Level FlightAware Approximate
Wed 07:02:00 PM 44.5202 -109.0238 53° Northeast  Level Estimated
Wed 07:03:00 PM 44.5167 -109.0167 53° Northeast  Level FlightAware Approximate
Wed 07:04:00 PM 44.5202 -109.0238 53° Northeast  Level Estimated
Wed 07:05:00 PM 44.5167 -109.0167 53° Northeast  Level FlightAware Approximate
Wed 07:06:00 PM 44.5202 -109.0238 53° Northeast  Level Estimated
Wed 07:07:00 PM 44.5167 -109.0167 53° Northeast  Level FlightAware Approximate
Wed 07:08:00 PM 44.5202 -109.0238 53° Northeast  Level Estimated
Wed 07:09:00 PM 44.5167 -109.0167 53° Northeast  Level FlightAware Approximate

Login

Don't have an account? Register now (free) for customized features, flight alerts, and more!